Time;durP1;ratioP1;P1;durP2;ratioP2;P2;SDS_P1;SDS_P2;PMS_P1;PMS_P2;Temp;Humidity;BMP_temperature;BMP_pressure;BME280_temperature;BME280_humidity;BME280_pressure;Samples;Min_cycle;Max_cycle;Signal;HPM_P1;HPM_P2
2023/03/29 00:02:16;;;;;;;2.35;0.90;;;13.10;66.60;;;;;;2238204;56;21007;-70
2023/03/29 00:04:43;;;;;;;2.12;1.08;;;13.10;66.60;;;;;;2237965;56;20967;-68
2023/03/29 00:07:10;;;;;;;2.60;1.12;;;13.10;66.50;;;;;;2238506;55;21016;-70
2023/03/29 00:09:37;;;;;;;2.75;1.00;;;13.20;66.50;;;;;;2238168;56;20988;-69
2023/03/29 00:12:03;;;;;;;1.90;0.90;;;13.20;66.40;;;;;;2461346;56;20991;-70
2023/03/29 00:14:30;;;;;;;1.85;0.80;;;13.20;66.40;;;;;;2463256;55;20984;-69
2023/03/29 00:16:56;;;;;;;2.40;1.00;;;13.20;66.30;;;;;;2459521;55;20994;-69
2023/03/29 00:19:23;;;;;;;2.45;1.00;;;13.20;66.20;;;;;;2237581;56;21464;-69
2023/03/29 00:21:49;;;;;;;2.42;1.17;;;13.30;66.30;;;;;;2236946;56;20956;-68
2023/03/29 00:24:15;;;;;;;2.45;1.02;;;13.30;66.30;;;;;;2237741;55;21028;-69
2023/03/29 00:26:42;;;;;;;1.87;1.00;;;13.30;66.00;;;;;;2238177;56;21052;-69
2023/03/29 00:29:08;;;;;;;2.70;1.15;;;13.30;66.10;;;;;;2460744;55;20979;-69
2023/03/29 00:31:35;;;;;;;1.60;0.70;;;13.30;66.20;;;;;;2238075;55;20964;-69
2023/03/29 00:34:01;;;;;;;2.33;0.90;;;13.30;66.30;;;;;;2461551;56;21436;-68
2023/03/29 00:36:27;;;;;;;1.52;0.70;;;13.40;66.50;;;;;;2462237;55;21709;-69
2023/03/29 00:38:55;;;;;;;3.00;1.17;;;13.40;66.50;;;;;;2461058;56;20972;-69
2023/03/29 00:41:21;;;;;;;1.73;0.73;;;13.40;66.40;;;;;;2238671;56;20928;-68
2023/03/29 00:43:58;;;;;;;1.98;0.80;;;13.50;66.60;;;;;;2461657;56;20899;-69
2023/03/29 00:46:25;;;;;;;1.95;0.85;;;13.50;66.20;;;;;;2238902;56;20996;-70
2023/03/29 00:48:54;;;;;;;2.47;1.08;;;13.50;66.30;;;;;;2461651;55;20976;-69
2023/03/29 00:51:21;;;;;;;2.10;0.88;;;13.50;66.30;;;;;;2237915;56;20968;-68
2023/03/29 00:53:49;;;;;;;2.45;1.05;;;13.50;66.30;;;;;;2460941;55;20990;-69
2023/03/29 00:56:25;;;;;;;2.55;1.20;;;13.40;66.10;;;;;;2239797;56;21074;-69
2023/03/29 00:59:06;;;;;;;2.67;1.00;;;13.50;65.80;;;;;;2239948;56;20958;-68
2023/03/29 01:01:53;;;;;;;2.05;0.88;;;13.40;65.80;;;;;;2461800;55;21071;-69
2023/03/29 01:05:10;;;;;;;2.65;1.10;;;13.40;64.50;;;;;;2236988;55;20980;-69
2023/03/29 01:07:46;;;;;;;3.97;1.10;;;13.40;65.60;;;;;;2237455;56;20971;-68
2023/03/29 01:10:42;;;;;;;2.75;1.33;;;13.40;66.00;;;;;;2461365;56;21007;-70
2023/03/29 01:13:15;;;;;;;2.05;0.82;;;13.40;65.00;;;;;;2237401;55;20979;-70
2023/03/29 01:15:42;;;;;;;1.75;0.80;;;13.40;66.20;;;;;;2239201;56;21020;-70
2023/03/29 01:18:08;;;;;;;2.03;0.80;;;13.40;66.60;;;;;;2237509;56;20972;-69
2023/03/29 01:24:42;;;;;;;1.70;0.70;;;13.40;66.60;;;;;;2237632;56;20976;-69
2023/03/29 01:27:16;;;;;;;1.20;0.50;;;13.40;64.50;;;;;;2461713;56;21004;-68
2023/03/29 01:30:03;;;;;;;1.45;0.60;;;13.50;66.80;;;;;;2223128;56;20998;-69
2023/03/29 01:32:35;;;;;;;2.22;0.50;;;13.50;65.70;;;;;;2237218;55;21422;-70
2023/03/29 01:35:13;;;;;;;1.60;0.70;;;13.50;66.70;;;;;;2237866;55;21521;-68
2023/03/29 01:38:07;;;;;;;1.42;0.60;;;13.40;66.70;;;;;;2462226;55;20981;-68
2023/03/29 01:40:33;;;;;;;1.25;0.60;;;13.40;65.60;;;;;;2237950;55;20976;-68
2023/03/29 01:46:33;;;;;;;1.90;0.55;;;13.40;66.90;;;;;;2460820;55;21033;-68
2023/03/29 01:49:23;;;;;;;1.80;0.57;;;13.40;64.90;;;;;;2237374;55;20955;-69
2023/03/29 01:52:02;;;;;;;1.42;0.60;;;13.40;65.60;;;;;;2237365;55;20988;-68
2023/03/29 01:54:37;;;;;;;1.80;0.60;;;13.40;66.70;;;;;;2462546;56;21059;-69
2023/03/29 01:57:04;;;;;;;1.60;0.60;;;13.30;66.30;;;;;;2459863;56;20976;-68
2023/03/29 01:59:33;;;;;;;1.15;0.60;;;13.30;66.80;;;;;;2237178;56;20984;-69
2023/03/29 02:02:03;;;;;;;1.23;0.55;;;13.40;66.90;;;;;;2236023;56;21092;-68
2023/03/29 02:04:35;;;;;;;1.85;0.70;;;13.30;67.50;;;;;;2461293;55;20976;-68
2023/03/29 02:07:02;;;;;;;1.40;0.65;;;13.30;66.80;;;;;;2237044;56;20996;-70
2023/03/29 02:09:28;;;;;;;1.73;0.80;;;13.30;66.80;;;;;;2460962;55;21356;-69
2023/03/29 02:11:56;;;;;;;1.48;0.57;;;13.30;66.80;;;;;;2459604;55;21059;-70
2023/03/29 02:14:24;;;;;;;2.00;0.90;;;13.30;66.70;;;;;;2236960;56;21007;-70
2023/03/29 02:16:51;;;;;;;2.53;0.65;;;13.30;66.70;;;;;;2239965;56;20976;-69
2023/03/29 02:19:17;;;;;;;1.15;0.60;;;13.30;66.70;;;;;;2458255;55;21066;-70
2023/03/29 02:21:55;;;;;;;1.95;0.70;;;13.30;66.70;;;;;;2460087;55;21019;-70
2023/03/29 02:24:21;;;;;;;1.65;0.88;;;13.30;66.10;;;;;;2461065;55;21580;-69
2023/03/29 02:26:48;;;;;;;1.20;0.52;;;13.30;66.60;;;;;;2460366;55;20972;-69
2023/03/29 02:29:17;;;;;;;1.37;0.70;;;13.30;66.60;;;;;;2460068;56;21276;-69
2023/03/29 02:31:54;;;;;;;1.20;0.50;;;13.20;66.50;;;;;;2237241;56;21070;-68
2023/03/29 02:34:41;;;;;;;1.00;0.50;;;13.30;66.60;;;;;;2236596;56;21048;-69
2023/03/29 02:37:11;;;;;;;1.45;0.57;;;13.20;65.90;;;;;;2236995;56;21036;-69
2023/03/29 02:39:38;;;;;;;1.10;0.52;;;13.20;66.60;;;;;;2460607;55;20987;-69
2023/03/29 02:42:04;;;;;;;2.22;0.80;;;13.20;66.60;;;;;;2236445;56;20967;-69
2023/03/29 02:44:33;;;;;;;1.80;0.70;;;13.20;66.60;;;;;;2237268;56;20979;-69
2023/03/29 02:47:12;;;;;;;1.17;0.70;;;13.20;66.60;;;;;;2459967;56;21004;-69
2023/03/29 02:49:39;;;;;;;2.30;0.73;;;13.20;65.90;;;;;;2237077;56;20960;-69
2023/03/29 02:52:10;;;;;;;1.40;0.65;;;13.20;66.80;;;;;;2240939;55;21043;-69
2023/03/29 02:54:42;;;;;;;2.17;0.90;;;13.20;66.40;;;;;;2235809;56;21004;-69
2023/03/29 02:57:11;;;;;;;1.83;0.80;;;13.20;66.80;;;;;;2238070;56;20940;-69
2023/03/29 02:59:37;;;;;;;2.55;0.90;;;13.10;66.70;;;;;;2238009;56;20940;-68
2023/03/29 03:02:04;;;;;;;1.85;0.80;;;13.20;66.90;;;;;;2460549;55;21031;-70
2023/03/29 03:04:32;;;;;;;1.87;0.73;;;13.20;66.80;;;;;;2238207;56;20960;-70
2023/03/29 03:06:59;;;;;;;1.90;0.90;;;13.20;66.60;;;;;;2237441;56;20979;-68
2023/03/29 03:09:29;;;;;;;3.45;0.80;;;13.10;66.50;;;;;;2238470;56;21822;-69
2023/03/29 03:11:56;;;;;;;1.87;0.70;;;13.20;66.50;;;;;;2237952;55;21051;-70
2023/03/29 03:14:27;;;;;;;1.77;0.90;;;13.20;66.60;;;;;;2240522;56;21003;-70
2023/03/29 03:16:56;;;;;;;1.62;0.80;;;13.10;66.20;;;;;;2237226;55;20971;-68
2023/03/29 03:19:23;;;;;;;3.37;0.80;;;13.20;66.10;;;;;;2462121;55;20960;-70
2023/03/29 03:21:51;;;;;;;1.17;0.60;;;13.20;66.40;;;;;;2237248;55;21011;-68
2023/03/29 03:24:19;;;;;;;3.22;0.73;;;13.20;66.30;;;;;;2462011;56;20963;-69
2023/03/29 03:26:45;;;;;;;2.35;0.80;;;13.20;66.60;;;;;;2461854;55;20960;-69
2023/03/29 03:29:13;;;;;;;1.42;0.70;;;13.20;67.50;;;;;;2237531;56;20968;-70
2023/03/29 03:31:40;;;;;;;1.33;0.60;;;13.20;66.80;;;;;;2461688;56;21047;-70
2023/03/29 03:34:10;;;;;;;1.60;0.60;;;13.20;66.90;;;;;;2461273;56;21020;-68
2023/03/29 03:36:36;;;;;;;1.95;0.60;;;13.20;67.00;;;;;;2461605;55;20996;-69
2023/03/29 03:39:05;;;;;;;1.85;0.73;;;13.20;67.00;;;;;;2237657;55;21032;-68
2023/03/29 03:41:33;;;;;;;1.75;0.70;;;13.20;67.00;;;;;;2238518;55;21040;-68
2023/03/29 03:43:59;;;;;;;3.35;0.82;;;13.20;67.10;;;;;;2237294;55;21853;-69
2023/03/29 03:46:26;;;;;;;1.42;0.60;;;13.20;67.10;;;;;;2462562;55;21520;-68
2023/03/29 03:48:52;;;;;;;1.77;0.77;;;13.20;67.20;;;;;;2237739;55;21015;-68
2023/03/29 03:51:19;;;;;;;1.55;0.60;;;13.10;67.10;;;;;;2238265;56;20940;-70
2023/03/29 03:53:45;;;;;;;1.67;0.70;;;13.10;67.20;;;;;;2220318;56;21099;-68
2023/03/29 03:56:13;;;;;;;1.30;0.60;;;13.10;67.20;;;;;;2461672;55;21004;-68
2023/03/29 03:58:40;;;;;;;3.60;1.00;;;13.10;67.20;;;;;;2462305;55;21126;-69
2023/03/29 04:01:07;;;;;;;1.60;0.70;;;13.10;67.30;;;;;;2240793;55;20956;-71
2023/03/29 04:03:37;;;;;;;1.70;0.57;;;13.20;67.40;;;;;;2460901;55;21052;-69
2023/03/29 04:06:04;;;;;;;1.65;0.70;;;13.20;67.50;;;;;;2459524;55;20975;-69
2023/03/29 04:08:32;;;;;;;1.70;0.75;;;13.10;67.30;;;;;;2462221;56;20979;-69
2023/03/29 04:10:58;;;;;;;1.75;0.60;;;13.10;67.30;;;;;;2237146;56;21257;-69
2023/03/29 04:13:28;;;;;;;1.70;0.70;;;13.10;67.30;;;;;;2238100;56;20987;-69
2023/03/29 04:15:55;;;;;;;1.42;0.62;;;13.10;67.10;;;;;;2237253;56;21584;-69
2023/03/29 04:18:22;;;;;;;4.70;2.17;;;13.10;67.30;;;;;;2240177;56;21370;-69
2023/03/29 04:20:49;;;;;;;4.37;2.03;;;13.10;67.30;;;;;;2461110;56;20980;-69
2023/03/29 04:23:15;;;;;;;3.30;1.42;;;13.10;67.40;;;;;;2237581;55;20959;-69
2023/03/29 04:25:41;;;;;;;3.55;1.10;;;13.10;67.40;;;;;;2461653;55;21091;-68
2023/03/29 04:28:09;;;;;;;1.80;0.73;;;13.10;67.30;;;;;;2240658;56;21509;-68
2023/03/29 04:30:36;;;;;;;2.15;0.77;;;13.10;67.30;;;;;;2240998;56;21382;-69
2023/03/29 04:33:03;;;;;;;1.90;0.80;;;13.10;67.30;;;;;;2236458;56;21773;-68
2023/03/29 04:35:30;;;;;;;1.35;0.60;;;13.10;67.30;;;;;;2461949;55;20959;-70
2023/03/29 04:37:57;;;;;;;1.92;0.70;;;13.10;67.40;;;;;;2236366;56;21012;-68
2023/03/29 04:40:23;;;;;;;2.25;0.80;;;13.10;67.40;;;;;;2238043;56;20976;-70
2023/03/29 04:42:52;;;;;;;1.50;0.60;;;13.00;67.30;;;;;;2461600;56;20980;-69
2023/03/29 04:45:21;;;;;;;2.33;0.82;;;13.00;67.20;;;;;;2461809;56;21116;-69
2023/03/29 04:47:48;;;;;;;1.60;0.65;;;13.00;67.10;;;;;;2237687;55;20963;-69
2023/03/29 04:50:14;;;;;;;2.37;0.77;;;13.00;67.40;;;;;;2460650;55;21002;-68
2023/03/29 04:52:44;;;;;;;1.52;0.60;;;13.00;67.40;;;;;;2460984;55;21417;-69
2023/03/29 04:55:10;;;;;;;2.40;0.70;;;13.00;67.30;;;;;;2237072;55;21040;-70
2023/03/29 04:57:37;;;;;;;2.67;0.75;;;13.00;67.50;;;;;;2237394;55;21055;-69
2023/03/29 05:00:13;;;;;;;2.30;0.88;;;13.00;67.50;;;;;;2236056;55;20996;-68
2023/03/29 05:02:42;;;;;;;2.12;0.90;;;13.00;67.50;;;;;;2459381;55;21006;-69
2023/03/29 05:05:09;;;;;;;1.95;0.80;;;13.00;67.60;;;;;;2460446;55;21000;-69
2023/03/29 05:07:38;;;;;;;1.83;0.90;;;13.00;67.60;;;;;;2462114;55;21501;-68
2023/03/29 05:10:05;;;;;;;2.28;1.10;;;13.00;67.50;;;;;;2236758;56;21051;-69
2023/03/29 05:12:35;;;;;;;2.05;0.85;;;13.10;67.80;;;;;;2462147;55;21056;-69
2023/03/29 05:15:04;;;;;;;2.50;0.90;;;13.00;67.60;;;;;;2237696;55;21476;-68
2023/03/29 05:17:30;;;;;;;2.42;1.00;;;13.00;67.70;;;;;;2241854;55;21047;-69
2023/03/29 05:19:57;;;;;;;2.70;1.00;;;13.10;67.80;;;;;;2235882;55;21003;-69
2023/03/29 05:22:23;;;;;;;3.25;1.50;;;13.00;67.70;;;;;;2461387;55;21029;-68
2023/03/29 05:24:50;;;;;;;3.50;1.62;;;13.00;67.70;;;;;;2461619;56;20991;-69
2023/03/29 05:27:16;;;;;;;3.83;1.73;;;13.00;67.60;;;;;;2461464;56;20957;-68
2023/03/29 05:29:46;;;;;;;3.85;1.67;;;13.00;67.60;;;;;;2238198;55;20992;-69
2023/03/29 05:32:13;;;;;;;4.72;2.12;;;13.10;67.70;;;;;;2237966;56;20972;-69
2023/03/29 05:34:39;;;;;;;4.53;2.17;;;13.00;67.60;;;;;;2461831;55;20972;-69
2023/03/29 05:37:06;;;;;;;4.53;2.00;;;13.00;67.60;;;;;;2460602;55;20967;-68
2023/03/29 05:39:33;;;;;;;4.87;2.45;;;13.00;67.70;;;;;;2238410;55;21031;-69
2023/03/29 05:42:00;;;;;;;4.37;2.00;;;13.00;67.70;;;;;;2237469;56;20951;-69
2023/03/29 05:44:26;;;;;;;5.25;1.77;;;13.00;67.70;;;;;;2462484;55;21032;-69
2023/03/29 05:46:53;;;;;;;5.15;2.20;;;13.00;67.70;;;;;;2461554;56;21031;-69
2023/03/29 05:49:20;;;;;;;4.37;2.17;;;13.00;67.70;;;;;;2462171;55;21000;-68
2023/03/29 05:51:47;;;;;;;5.35;2.58;;;13.00;67.60;;;;;;2239367;55;21011;-69
2023/03/29 05:54:14;;;;;;;5.40;2.90;;;13.00;67.60;;;;;;2460836;55;22030;-68
2023/03/29 05:56:41;;;;;;;5.78;3.00;;;13.00;67.70;;;;;;2460660;56;20960;-69
2023/03/29 05:59:08;;;;;;;5.60;3.03;;;13.10;67.80;;;;;;2461109;56;21500;-69
2023/03/29 06:01:35;;;;;;;4.90;2.70;;;13.10;67.90;;;;;;2238460;56;21048;-68
2023/03/29 06:04:02;;;;;;;3.47;1.80;;;13.10;67.90;;;;;;2237235;55;21488;-69
2023/03/29 06:06:28;;;;;;;3.78;1.92;;;13.10;67.90;;;;;;2462482;56;21025;-69
2023/03/29 06:08:55;;;;;;;2.80;1.40;;;13.10;68.00;;;;;;2240854;56;21625;-69
2023/03/29 06:11:23;;;;;;;2.60;1.33;;;13.10;68.10;;;;;;2237086;56;21008;-69
2023/03/29 06:13:50;;;;;;;4.30;1.52;;;13.10;68.20;;;;;;2461564;56;20984;-68
2023/03/29 06:16:17;;;;;;;2.87;1.50;;;13.20;68.40;;;;;;2237967;55;21079;-69
2023/03/29 06:18:43;;;;;;;2.37;1.20;;;13.20;68.40;;;;;;2238189;56;20991;-69
2023/03/29 06:21:09;;;;;;;3.12;1.55;;;13.20;68.50;;;;;;2460569;55;21055;-69
2023/03/29 06:23:36;;;;;;;3.75;1.60;;;13.20;68.50;;;;;;2237639;55;21501;-69
2023/03/29 06:26:04;;;;;;;3.87;1.60;;;13.20;68.50;;;;;;2237104;56;21461;-68
2023/03/29 06:28:30;;;;;;;3.15;1.65;;;13.30;68.60;;;;;;2462579;56;20968;-69
2023/03/29 06:31:00;;;;;;;4.00;1.33;;;13.30;68.80;;;;;;2237729;55;21032;-69
2023/03/29 06:33:31;;;;;;;3.50;1.40;;;13.30;68.90;;;;;;2461805;56;21007;-68
2023/03/29 06:35:57;;;;;;;3.53;1.70;;;13.40;68.90;;;;;;2238492;55;21077;-69
2023/03/29 06:38:27;;;;;;;4.32;1.80;;;13.40;69.10;;;;;;2237834;56;20976;-69
2023/03/29 06:41:01;;;;;;;3.65;2.03;;;13.50;69.20;;;;;;2237602;56;21489;-69
2023/03/29 06:43:27;;;;;;;4.18;2.08;;;13.50;69.00;;;;;;2436766;56;21645;-68
2023/03/29 06:45:54;;;;;;;3.97;2.10;;;13.50;69.50;;;;;;2237595;55;20948;-69
2023/03/29 06:48:20;;;;;;;3.53;1.77;;;13.60;69.60;;;;;;2238184;55;21003;-69
2023/03/29 06:50:47;;;;;;;4.50;2.47;;;13.70;69.80;;;;;;2461912;56;20980;-69
2023/03/29 06:53:14;;;;;;;4.35;2.55;;;13.70;69.80;;;;;;2461829;55;21079;-69
2023/03/29 06:55:40;;;;;;;4.10;2.00;;;13.80;69.80;;;;;;2239805;55;21487;-69
2023/03/29 06:58:08;;;;;;;3.78;2.10;;;13.80;69.70;;;;;;2460955;55;21115;-69
2023/03/29 07:00:36;;;;;;;4.65;2.10;;;13.80;69.70;;;;;;2238591;56;21031;-69
2023/03/29 07:03:06;;;;;;;4.72;2.37;;;13.90;69.80;;;;;;2237218;56;20979;-69
2023/03/29 07:05:35;;;;;;;4.00;2.10;;;14.00;69.60;;;;;;2462100;55;21785;-69
2023/03/29 07:10:46;;;;;;;3.75;1.75;;;14.10;69.50;;;;;;2237393;55;20988;-70
2023/03/29 07:13:12;;;;;;;3.00;1.50;;;14.20;69.40;;;;;;2462168;55;20975;-69
2023/03/29 07:15:45;;;;;;;2.30;1.20;;;14.20;69.10;;;;;;2236628;56;20984;-69
2023/03/29 07:18:11;;;;;;;4.90;1.50;;;14.30;69.10;;;;;;2461773;56;21397;-69
2023/03/29 07:20:40;;;;;;;3.08;1.23;;;14.40;69.00;;;;;;2462310;55;21024;-66
2023/03/29 07:23:09;;;;;;;2.47;1.08;;;14.40;68.70;;;;;;2239586;55;21496;-69
2023/03/29 07:25:35;;;;;;;3.60;1.02;;;14.40;68.50;;;;;;2461880;56;21020;-69
2023/03/29 07:28:02;;;;;;;3.33;1.40;;;14.50;68.40;;;;;;2461042;56;21461;-69
2023/03/29 07:30:29;;;;;;;2.72;1.05;;;14.60;68.40;;;;;;2461938;55;20948;-70
2023/03/29 07:32:57;;;;;;;3.03;1.35;;;14.60;68.30;;;;;;2220715;57;21106;-71
2023/03/29 07:35:26;;;;;;;2.37;1.05;;;14.70;68.40;;;;;;2461099;55;21078;-66
2023/03/29 07:37:54;;;;;;;2.72;1.02;;;14.70;68.00;;;;;;2237365;56;21015;-67
2023/03/29 07:40:22;;;;;;;4.95;1.37;;;14.80;68.20;;;;;;2241776;55;21007;-68
2023/03/29 07:42:50;;;;;;;3.17;1.23;;;14.80;68.00;;;;;;2235705;56;21087;-67
2023/03/29 07:45:19;;;;;;;3.42;1.40;;;14.90;67.70;;;;;;2243491;55;21480;-67
2023/03/29 07:47:48;;;;;;;2.35;1.08;;;14.90;67.70;;;;;;2459516;55;20996;-67
2023/03/29 07:50:16;;;;;;;3.47;1.40;;;15.00;67.20;;;;;;2461270;56;20992;-69
2023/03/29 07:52:43;;;;;;;2.78;1.12;;;15.00;67.40;;;;;;2242448;55;21000;-67
2023/03/29 07:55:10;;;;;;;3.35;1.30;;;15.10;67.60;;;;;;2459546;55;21014;-67
2023/03/29 07:57:36;;;;;;;2.87;1.27;;;15.30;67.70;;;;;;2461773;55;20980;-67
2023/03/29 08:00:15;;;;;;;2.72;1.08;;;15.20;67.70;;;;;;2237640;55;21516;-67
2023/03/29 08:02:46;;;;;;;3.25;1.20;;;15.30;67.70;;;;;;2238535;55;21508;-66
2023/03/29 08:05:13;;;;;;;2.67;1.23;;;15.30;67.40;;;;;;2237506;56;21908;-69
2023/03/29 08:07:40;;;;;;;3.22;1.30;;;15.40;67.70;;;;;;2237910;56;21044;-67
2023/03/29 08:10:09;;;;;;;2.85;1.12;;;15.40;67.50;;;;;;2460812;56;21724;-67
2023/03/29 08:12:36;;;;;;;3.37;1.00;;;15.50;67.40;;;;;;2238133;56;21516;-68
2023/03/29 08:15:04;;;;;;;4.10;1.23;;;15.60;67.80;;;;;;2240353;56;20963;-67
2023/03/29 08:17:30;;;;;;;4.12;1.30;;;15.60;67.70;;;;;;2237204;56;21440;-67
2023/03/29 08:19:57;;;;;;;3.00;1.20;;;15.70;67.60;;;;;;2238070;55;21627;-67
2023/03/29 08:22:24;;;;;;;2.37;0.98;;;15.70;67.50;;;;;;2460508;55;21042;-68
2023/03/29 08:24:51;;;;;;;2.80;1.23;;;15.80;67.30;;;;;;2460840;55;21047;-68
2023/03/29 08:27:20;;;;;;;2.70;1.10;;;15.90;67.30;;;;;;2461979;55;20968;-66
2023/03/29 08:29:47;;;;;;;3.37;1.50;;;15.90;67.20;;;;;;2238032;56;20995;-67
2023/03/29 08:32:14;;;;;;;2.42;0.98;;;16.00;67.50;;;;;;2461840;56;21004;-67
2023/03/29 08:34:40;;;;;;;3.33;1.30;;;16.10;67.80;;;;;;2462098;55;20975;-67
2023/03/29 08:37:07;;;;;;;3.62;1.50;;;16.20;67.40;;;;;;2237906;56;21019;-67
2023/03/29 08:39:33;;;;;;;2.25;0.93;;;16.20;66.80;;;;;;2238719;56;20987;-67
2023/03/29 08:42:34;;;;;;;2.55;1.10;;;16.30;67.00;;;;;;2459512;55;20968;-68
2023/03/29 08:48:15;;;;;;;2.65;0.90;;;16.40;65.40;;;;;;2460964;55;21766;-68
2023/03/29 08:50:47;;;;;;;2.65;1.10;;;16.50;64.30;;;;;;2460745;55;20956;-67
2023/03/29 08:53:16;;;;;;;2.45;1.00;;;16.60;67.00;;;;;;2238859;55;21003;-67
2023/03/29 08:55:44;;;;;;;2.95;1.30;;;16.70;67.00;;;;;;2462124;55;20997;-67
2023/03/29 08:58:23;;;;;;;3.28;1.10;;;16.70;67.00;;;;;;2460380;55;21003;-67
2023/03/29 09:00:52;;;;;;;2.78;1.02;;;16.80;65.80;;;;;;2237989;55;20975;-67
2023/03/29 09:03:28;;;;;;;2.87;1.17;;;16.90;67.30;;;;;;2237293;56;21877;-68
2023/03/29 09:05:58;;;;;;;2.72;1.10;;;16.90;66.40;;;;;;2461037;55;21039;-67
2023/03/29 09:08:24;;;;;;;3.60;1.10;;;17.00;67.30;;;;;;2462985;55;21067;-67
2023/03/29 09:12:55;;;;;;;3.67;1.25;;;17.10;67.10;;;;;;2236233;56;20960;-67
2023/03/29 09:15:43;;;;;;;2.55;1.02;;;17.30;64.10;;;;;;2237938;56;21016;-67
2023/03/29 09:21:54;;;;;;;2.30;0.93;;;17.40;67.60;;;;;;2237537;55;20976;-69
2023/03/29 09:24:46;;;;;;;1.80;0.90;;;17.60;64.50;;;;;;2461909;56;20964;-67
2023/03/29 09:27:37;;;;;;;3.37;1.10;;;17.80;64.90;;;;;;2462153;55;20975;-67
2023/03/29 09:31:36;;;;;;;1.85;0.82;;;17.80;65.00;;;;;;2237517;56;20984;-68
2023/03/29 09:34:20;;;;;;;2.80;1.17;;;17.80;65.80;;;;;;2237467;56;21032;-68
2023/03/29 09:36:53;;;;;;;2.85;1.08;;;17.90;65.00;;;;;;2238555;56;21079;-69
2023/03/29 09:39:22;;;;;;;3.60;0.90;;;17.90;65.80;;;;;;2462355;56;20972;-68
2023/03/29 09:42:10;;;;;;;2.42;1.00;;;18.00;66.80;;;;;;2236317;56;21035;-67
2023/03/29 09:44:51;;;;;;;2.62;0.90;;;18.00;65.40;;;;;;2462281;56;20936;-69
2023/03/29 09:47:23;;;;;;;2.42;0.90;;;18.10;66.10;;;;;;2461897;56;20993;-69
2023/03/29 09:49:51;;;;;;;1.90;0.80;;;18.10;64.80;;;;;;2237841;56;21003;-69
2023/03/29 09:52:19;;;;;;;3.15;1.25;;;18.20;65.40;;;;;;2460908;55;21107;-67
2023/03/29 09:54:46;;;;;;;3.42;1.00;;;18.20;65.50;;;;;;2461337;55;22067;-68
2023/03/29 09:57:18;;;;;;;2.08;0.82;;;18.30;65.80;;;;;;2238001;56;21020;-68
2023/03/29 09:59:45;;;;;;;2.53;0.90;;;18.30;65.40;;;;;;2462226;56;20952;-69
2023/03/29 10:02:12;;;;;;;2.95;1.10;;;18.30;66.00;;;;;;2461715;56;21031;-68
2023/03/29 10:04:41;;;;;;;2.75;1.08;;;18.40;65.60;;;;;;2240192;56;22508;-69
2023/03/29 10:07:12;;;;;;;2.05;0.70;;;18.40;65.70;;;;;;2238550;55;21018;-68
2023/03/29 10:09:41;;;;;;;2.60;1.00;;;18.50;65.70;;;;;;2239111;56;21462;-68
2023/03/29 10:12:10;;;;;;;2.83;0.90;;;18.50;65.40;;;;;;2460871;55;21877;-68
2023/03/29 10:14:50;;;;;;;3.20;0.98;;;18.60;65.60;;;;;;2462132;55;20984;-69
2023/03/29 10:17:24;;;;;;;2.30;0.80;;;18.60;64.30;;;;;;2237205;55;21048;-67
2023/03/29 10:19:52;;;;;;;2.40;0.70;;;18.60;63.80;;;;;;2435946;56;22067;-68
2023/03/29 10:22:28;;;;;;;4.12;1.00;;;18.70;65.10;;;;;;2461264;55;21036;-67
2023/03/29 10:24:56;;;;;;;2.83;0.93;;;18.70;63.90;;;;;;2461230;55;20960;-68
2023/03/29 10:27:26;;;;;;;1.60;0.70;;;18.70;64.50;;;;;;2238192;56;20975;-68
2023/03/29 10:29:52;;;;;;;2.95;0.90;;;18.80;64.80;;;;;;2462215;55;21040;-68
2023/03/29 10:32:37;;;;;;;3.08;1.23;;;18.80;64.40;;;;;;2461865;56;20996;-68
2023/03/29 10:35:14;;;;;;;2.87;0.85;;;18.90;62.00;;;;;;2239850;56;21014;-69
2023/03/29 10:37:44;;;;;;;2.92;0.90;;;18.90;63.10;;;;;;2237844;55;21776;-70
2023/03/29 10:41:10;;;;;;;2.90;0.93;;;19.00;64.00;;;;;;2461154;56;21123;-70
2023/03/29 10:43:44;;;;;;;2.78;1.10;;;19.00;60.40;;;;;;2462361;55;21043;-68
2023/03/29 10:47:50;;;;;;;3.70;1.40;;;19.00;62.10;;;;;;2237066;56;20991;-69
2023/03/29 10:50:16;;;;;;;2.25;0.90;;;19.10;62.90;;;;;;2462028;56;20956;-70
2023/03/29 10:52:43;;;;;;;3.10;1.15;;;19.10;64.10;;;;;;2462182;55;20992;-70
2023/03/29 10:55:11;;;;;;;3.03;1.10;;;19.20;64.00;;;;;;2240862;55;21000;-68
2023/03/29 11:01:03;;;;;;;6.93;2.60;;;19.20;63.60;;;;;;2459899;55;21537;-69
2023/03/29 11:06:32;;;;;;;4.12;1.60;;;19.20;61.40;;;;;;2461454;55;21345;-70
2023/03/29 11:09:07;;;;;;;2.80;1.00;;;19.30;60.60;;;;;;2237622;56;21004;-69
2023/03/29 11:11:46;;;;;;;2.30;0.93;;;19.30;63.30;;;;;;2461385;55;20968;-72
2023/03/29 11:14:34;;;;;;;2.42;0.80;;;19.30;63.10;;;;;;2460961;56;21393;-71
2023/03/29 11:17:30;;;;;;;1.70;0.70;;;19.30;62.80;;;;;;2237298;56;21052;-68
2023/03/29 11:20:46;;;;;;;5.75;1.15;;;19.30;63.70;;;;;;2238242;56;20996;-70
2023/03/29 11:23:40;;;;;;;1.85;0.77;;;19.20;61.10;;;;;;2461141;56;21480;-72
2023/03/29 11:26:25;;;;;;;1.80;0.70;;;19.30;62.50;;;;;;2461517;55;20988;-70
2023/03/29 11:29:08;;;;;;;2.90;1.02;;;19.30;62.20;;;;;;2435201;56;21540;-69
2023/03/29 11:38:29;;;;;;;3.20;0.90;;;19.30;63.80;;;;;;2237497;56;21846;-68
2023/03/29 11:41:19;;;;;;;2.95;0.90;;;19.30;63.30;;;;;;2461407;56;21440;-67
2023/03/29 11:43:47;;;;;;;1.95;0.77;;;19.40;64.20;;;;;;2461816;55;20984;-68
2023/03/29 11:46:28;;;;;;;2.35;0.80;;;19.40;64.50;;;;;;2237096;56;21504;-68
2023/03/29 11:49:14;;;;;;;2.53;0.98;;;19.40;63.10;;;;;;2237301;56;21084;-67
2023/03/29 11:51:47;;;;;;;2.80;1.10;;;19.40;62.10;;;;;;2238334;55;21601;-70
2023/03/29 11:54:17;;;;;;;2.47;0.80;;;19.30;64.60;;;;;;2462159;56;20996;-69
2023/03/29 11:56:51;;;;;;;2.47;0.90;;;19.50;64.40;;;;;;2235911;56;21429;-68
2023/03/29 12:00:06;;;;;;;2.20;0.80;;;19.50;65.40;;;;;;2237109;55;21100;-68
2023/03/29 12:02:46;;;;;;;3.42;0.90;;;19.60;61.40;;;;;;2237510;55;20964;-68
2023/03/29 12:05:33;;;;;;;2.75;1.02;;;19.60;64.60;;;;;;2461149;55;21104;-69
2023/03/29 12:08:11;;;;;;;1.67;0.80;;;19.70;63.60;;;;;;2238138;55;21439;-69
2023/03/29 12:10:49;;;;;;;2.65;0.80;;;19.80;65.40;;;;;;2461708;55;20979;-68
2023/03/29 12:13:24;;;;;;;2.45;0.90;;;19.80;65.80;;;;;;2237569;56;21023;-68
2023/03/29 12:16:13;;;;;;;2.42;0.90;;;19.90;65.40;;;;;;2461667;56;21012;-70
2023/03/29 12:18:41;;;;;;;1.87;0.75;;;20.00;65.50;;;;;;2237885;55;20962;-69
2023/03/29 12:21:29;;;;;;;2.78;0.82;;;20.10;66.30;;;;;;2461423;55;21054;-68
2023/03/29 12:23:55;;;;;;;2.67;0.80;;;20.20;63.30;;;;;;2460042;55;21020;-69
2023/03/29 12:26:44;;;;;;;2.35;0.85;;;20.40;66.90;;;;;;2460911;56;20972;-68
2023/03/29 12:31:51;;;;;;;3.15;0.90;;;20.50;63.10;;;;;;2237402;56;21091;-70
2023/03/29 12:34:54;;;;;;;2.87;0.80;;;20.80;63.20;;;;;;2237370;55;20995;-69
2023/03/29 12:37:47;;;;;;;2.72;0.90;;;21.00;65.10;;;;;;2244632;55;21027;-69
2023/03/29 12:40:15;;;;;;;3.08;0.82;;;21.20;64.00;;;;;;2235632;56;22027;-67
2023/03/29 12:43:42;;;;;;;3.40;1.20;;;21.30;66.30;;;;;;2460346;55;21055;-69
2023/03/29 12:46:10;;;;;;;2.00;0.70;;;21.40;61.80;;;;;;2237064;55;20964;-68
2023/03/29 12:48:37;;;;;;;1.95;0.90;;;21.50;65.80;;;;;;2241479;56;21023;-69
2023/03/29 12:51:07;;;;;;;2.05;0.80;;;21.50;64.60;;;;;;2457159;55;21461;-69
2023/03/29 12:53:43;;;;;;;4.03;1.37;;;21.60;64.30;;;;;;2237671;55;20972;-69
2023/03/29 12:56:12;;;;;;;2.83;1.30;;;21.60;64.60;;;;;;2460654;55;20972;-68
2023/03/29 12:59:32;;;;;;;3.00;1.10;;;21.70;64.70;;;;;;2236200;56;21043;-68
2023/03/29 13:02:03;;;;;;;2.75;1.20;;;21.70;60.90;;;;;;2237912;55;21052;-69
2023/03/29 13:04:48;;;;;;;3.42;1.20;;;21.80;64.90;;;;;;2238152;56;21386;-69
2023/03/29 13:07:28;;;;;;;4.25;1.23;;;21.80;62.10;;;;;;2238429;56;21015;-69
2023/03/29 13:09:58;;;;;;;3.85;1.50;;;21.90;62.30;;;;;;2461107;55;21296;-68
2023/03/29 13:12:41;;;;;;;3.17;1.12;;;21.90;63.80;;;;;;2237543;55;21036;-68
2023/03/29 13:15:41;;;;;;;6.10;2.95;;;21.90;61.70;;;;;;2235603;55;21004;-68
2023/03/29 13:18:32;;;;;;;3.85;1.70;;;21.90;60.50;;;;;;2236312;55;21060;-69
2023/03/29 13:21:22;;;;;;;2.35;1.00;;;22.00;61.60;;;;;;2238085;56;21785;-70
2023/03/29 13:25:23;;;;;;;2.78;1.08;;;22.00;61.50;;;;;;2240671;56;21542;-69
2023/03/29 13:28:26;;;;;;;2.90;1.17;;;22.10;61.80;;;;;;2459220;55;20974;-69
2023/03/29 13:30:58;;;;;;;2.25;0.80;;;22.10;63.50;;;;;;2462182;56;21024;-71
2023/03/29 13:33:48;;;;;;;3.30;1.00;;;22.10;63.80;;;;;;2237628;56;20980;-68
2023/03/29 13:36:44;;;;;;;2.58;0.80;;;22.10;61.30;;;;;;2461046;55;21798;-70
2023/03/29 13:39:26;;;;;;;2.75;1.00;;;22.20;61.70;;;;;;2460657;56;20984;-71
2023/03/29 13:42:23;;;;;;;2.72;0.90;;;22.20;61.80;;;;;;2237916;56;21111;-70
2023/03/29 13:44:50;;;;;;;1.77;0.75;;;22.30;62.70;;;;;;2461454;56;21484;-70
2023/03/29 13:47:38;;;;;;;2.55;1.00;;;22.40;64.60;;;;;;2461149;56;21020;-69
2023/03/29 13:50:19;;;;;;;2.80;1.10;;;22.50;61.30;;;;;;2461483;56;21019;-69
2023/03/29 13:52:56;;;;;;;2.90;0.95;;;22.50;65.20;;;;;;2461868;55;20964;-70
2023/03/29 13:55:31;;;;;;;2.53;1.00;;;22.60;64.40;;;;;;2462144;55;21024;-70